Time;durP1;ratioP1;P1;durP2;ratioP2;P2;SDS_P1;SDS_P2;PMS_P1;PMS_P2;Temp;Humidity;BMP_temperature;BMP_pressure;BME280_temperature;BME280_humidity;BME280_pressure;Samples;Min_cycle;Max_cycle;Signal;HPM_P1;HPM_P2
2023/10/24 00:00:52;;;;;;;1.80;1.20;;;13.60;84.40;;;;;;5041610;28;20487;-52
2023/10/24 00:03:20;;;;;;;1.90;1.43;;;13.60;85.30;;;;;;5019384;28;20473;-52
2023/10/24 00:05:51;;;;;;;2.70;1.20;;;13.60;84.80;;;;;;5025528;28;20475;-52
2023/10/24 00:08:19;;;;;;;4.23;1.57;;;13.60;84.40;;;;;;5038940;28;20447;-51
2023/10/24 00:10:49;;;;;;;3.23;1.33;;;13.60;84.20;;;;;;5013626;28;20521;-52
2023/10/24 00:13:17;;;;;;;1.90;1.00;;;13.60;84.00;;;;;;5016841;28;20436;-51
2023/10/24 00:15:46;;;;;;;2.70;1.40;;;13.70;83.80;;;;;;5024318;28;20503;-51
2023/10/24 00:18:14;;;;;;;1.83;1.27;;;13.70;83.10;;;;;;5041226;28;20448;-53
2023/10/24 00:20:42;;;;;;;1.93;1.40;;;13.70;82.90;;;;;;5043180;28;20481;-52
2023/10/24 00:23:10;;;;;;;1.77;1.00;;;13.70;83.90;;;;;;5021605;28;20461;-51
2023/10/24 00:25:39;;;;;;;2.77;1.40;;;13.60;83.20;;;;;;5025392;28;20463;-51
2023/10/24 00:28:10;;;;;;;2.80;1.13;;;13.60;83.10;;;;;;5041447;28;20459;-51
2023/10/24 00:30:39;;;;;;;1.67;0.97;;;13.70;83.00;;;;;;5042401;28;20440;-51
2023/10/24 00:33:07;;;;;;;1.40;0.90;;;13.70;83.30;;;;;;5021361;28;21062;-53
2023/10/24 00:35:35;;;;;;;1.90;1.10;;;13.60;83.50;;;;;;5036571;28;20461;-51
2023/10/24 00:38:04;;;;;;;2.10;0.83;;;13.60;83.50;;;;;;5019891;28;20438;-51
2023/10/24 00:40:33;;;;;;;2.13;1.20;;;13.60;83.10;;;;;;5024640;28;20577;-51
2023/10/24 00:43:04;;;;;;;1.80;1.13;;;13.60;83.30;;;;;;5024678;28;20968;-52
2023/10/24 00:45:35;;;;;;;2.57;1.83;;;13.60;83.60;;;;;;5042464;28;20746;-52
2023/10/24 00:48:06;;;;;;;1.80;0.90;;;13.60;83.50;;;;;;5025098;28;20458;-51
2023/10/24 00:50:35;;;;;;;2.50;1.13;;;13.60;83.90;;;;;;5034863;28;20572;-52
2023/10/24 00:53:04;;;;;;;1.80;1.03;;;13.60;84.10;;;;;;5041993;28;20475;-52
2023/10/24 00:55:35;;;;;;;1.83;1.10;;;13.60;84.20;;;;;;5022852;28;20464;-51
2023/10/24 00:58:03;;;;;;;2.43;1.20;;;13.60;83.80;;;;;;5023018;28;20431;-50
2023/10/24 01:00:36;;;;;;;1.60;0.97;;;13.60;83.90;;;;;;5007148;28;20567;-52
2023/10/24 01:03:05;;;;;;;1.57;1.00;;;13.60;83.70;;;;;;5042594;28;20906;-52
2023/10/24 01:05:36;;;;;;;1.87;1.00;;;13.60;83.60;;;;;;5041720;28;20996;-51
2023/10/24 01:08:05;;;;;;;1.70;1.03;;;13.60;83.40;;;;;;5037171;28;20453;-50
2023/10/24 01:10:34;;;;;;;3.00;1.20;;;13.60;83.20;;;;;;5020889;28;20449;-53
2023/10/24 01:13:02;;;;;;;1.53;1.03;;;13.60;82.60;;;;;;5023192;28;20441;-52
2023/10/24 01:15:31;;;;;;;1.70;1.13;;;13.60;83.00;;;;;;5031728;28;20503;-51
2023/10/24 01:18:02;;;;;;;3.30;1.20;;;13.60;83.40;;;;;;5026415;28;20445;-51
2023/10/24 01:20:31;;;;;;;1.93;0.90;;;13.60;83.20;;;;;;5009387;28;20526;-53
2023/10/24 01:23:00;;;;;;;2.60;1.33;;;13.60;83.10;;;;;;5020780;28;20933;-53
2023/10/24 01:25:30;;;;;;;1.67;1.13;;;13.60;83.90;;;;;;5037671;28;20507;-53
2023/10/24 01:27:59;;;;;;;2.47;1.30;;;13.60;82.90;;;;;;5035228;28;20433;-52
2023/10/24 01:30:28;;;;;;;1.53;1.13;;;13.60;83.20;;;;;;5036527;28;20441;-52
2023/10/24 01:32:56;;;;;;;1.93;1.13;;;13.60;82.80;;;;;;5019544;28;20459;-53
2023/10/24 01:35:25;;;;;;;2.23;1.30;;;13.60;82.80;;;;;;5039863;28;20492;-52
2023/10/24 01:37:53;;;;;;;1.50;0.90;;;13.70;83.00;;;;;;5039280;28;20499;-50
2023/10/24 01:40:24;;;;;;;2.50;1.27;;;13.60;82.70;;;;;;5041852;28;20443;-53
2023/10/24 01:42:52;;;;;;;1.43;0.97;;;13.70;82.70;;;;;;5021549;28;20448;-52
2023/10/24 01:45:20;;;;;;;1.70;1.20;;;13.70;83.00;;;;;;5027296;28;20474;-52
2023/10/24 01:47:49;;;;;;;2.10;1.30;;;13.70;84.70;;;;;;5023623;28;20544;-53
2023/10/24 01:50:17;;;;;;;2.30;1.10;;;13.70;83.10;;;;;;5027751;28;20456;-51
2023/10/24 01:52:45;;;;;;;1.20;0.90;;;13.70;83.10;;;;;;5038134;28;20453;-53
2023/10/24 01:55:14;;;;;;;2.13;1.00;;;13.70;82.60;;;;;;5045238;28;20486;-52
2023/10/24 01:57:44;;;;;;;2.30;1.50;;;13.70;82.60;;;;;;5028073;28;21289;-53
2023/10/24 02:00:13;;;;;;;1.50;0.90;;;13.70;82.80;;;;;;5028818;28;20463;-53
2023/10/24 02:02:41;;;;;;;2.03;0.73;;;13.70;83.10;;;;;;5025313;28;20450;-52
2023/10/24 02:05:12;;;;;;;2.60;0.80;;;13.70;82.70;;;;;;4497513;28;15070503;-52
2023/10/24 02:07:40;;;;;;;1.23;0.77;;;13.70;82.50;;;;;;5006486;28;20244;-53
2023/10/24 02:10:09;;;;;;;2.60;1.10;;;13.70;82.60;;;;;;5023592;28;20964;-51
2023/10/24 02:12:37;;;;;;;2.33;0.83;;;13.70;82.70;;;;;;5028403;28;20446;-53
2023/10/24 02:15:09;;;;;;;2.27;1.17;;;13.70;82.10;;;;;;5039499;28;21906;-52
2023/10/24 02:17:37;;;;;;;1.77;0.70;;;13.70;82.10;;;;;;5057487;28;20474;-51
2023/10/24 02:20:07;;;;;;;2.20;0.97;;;13.70;82.30;;;;;;5049333;28;20443;-50
2023/10/24 02:22:35;;;;;;;1.70;0.97;;;13.70;82.10;;;;;;5046016;28;20472;-50
2023/10/24 02:25:04;;;;;;;1.30;0.90;;;13.70;82.40;;;;;;5029906;28;20553;-53
2023/10/24 02:27:34;;;;;;;1.40;0.80;;;13.70;82.60;;;;;;5044837;28;21361;-52
2023/10/24 02:30:04;;;;;;;1.97;0.90;;;13.70;82.10;;;;;;5043337;28;20981;-53
2023/10/24 02:32:34;;;;;;;1.97;0.93;;;13.60;82.10;;;;;;5028239;28;20459;-52
2023/10/24 02:35:03;;;;;;;2.30;1.23;;;13.70;81.70;;;;;;5024187;28;20545;-52
2023/10/24 02:37:31;;;;;;;2.40;0.80;;;13.70;81.80;;;;;;5039354;28;20445;-51
2023/10/24 02:39:59;;;;;;;1.20;0.80;;;13.70;81.90;;;;;;5026200;28;20522;-52
2023/10/24 02:42:28;;;;;;;1.00;0.63;;;13.70;82.10;;;;;;5031260;28;21013;-53
2023/10/24 02:44:56;;;;;;;1.83;1.07;;;13.60;81.30;;;;;;5026371;28;20571;-51
2023/10/24 02:47:24;;;;;;;2.30;0.90;;;13.70;81.20;;;;;;5020188;28;22099;-53
2023/10/24 02:49:55;;;;;;;1.80;1.20;;;13.70;81.10;;;;;;5043787;28;20526;-51
2023/10/24 02:52:23;;;;;;;1.30;0.90;;;13.70;81.00;;;;;;5024933;28;20576;-52
2023/10/24 02:54:53;;;;;;;1.83;0.80;;;13.70;81.00;;;;;;5029270;28;20517;-51
2023/10/24 02:57:22;;;;;;;1.33;0.70;;;13.70;80.90;;;;;;5024831;28;21005;-54
2023/10/24 02:59:53;;;;;;;1.27;0.80;;;13.70;80.50;;;;;;5006429;28;20441;-50
2023/10/24 03:02:22;;;;;;;1.50;0.80;;;13.70;80.80;;;;;;5025032;28;20970;-51
2023/10/24 03:04:50;;;;;;;1.07;0.70;;;13.70;80.70;;;;;;5044094;28;20468;-51
2023/10/24 03:07:19;;;;;;;1.23;0.70;;;13.70;81.10;;;;;;5039624;28;20794;-50
2023/10/24 03:09:48;;;;;;;1.17;0.77;;;13.70;81.20;;;;;;5028658;28;20440;-51
2023/10/24 03:12:16;;;;;;;1.33;0.80;;;13.70;81.40;;;;;;5029520;28;20432;-53
2023/10/24 03:14:45;;;;;;;1.00;0.67;;;13.70;81.40;;;;;;5026111;28;20450;-52
2023/10/24 03:17:13;;;;;;;1.60;0.80;;;13.70;81.60;;;;;;5044656;28;20470;-53
2023/10/24 03:19:41;;;;;;;1.17;0.93;;;13.70;81.00;;;;;;5048860;28;20511;-53
2023/10/24 03:22:10;;;;;;;2.00;0.77;;;13.70;80.70;;;;;;5025153;28;20452;-53
2023/10/24 03:24:40;;;;;;;1.33;0.70;;;13.70;80.50;;;;;;5025679;28;20489;-53
2023/10/24 03:27:12;;;;;;;1.50;1.00;;;13.70;80.80;;;;;;5031179;28;20517;-51
2023/10/24 03:29:41;;;;;;;1.73;1.03;;;13.70;80.60;;;;;;5011959;28;20450;-51
2023/10/24 03:32:11;;;;;;;1.67;0.80;;;13.70;81.40;;;;;;5033971;28;20553;-51
2023/10/24 03:34:39;;;;;;;1.67;0.83;;;13.70;81.80;;;;;;5045073;28;20468;-51
2023/10/24 03:37:08;;;;;;;1.23;0.70;;;13.60;81.20;;;;;;5041814;28;20466;-50
2023/10/24 03:39:36;;;;;;;1.60;0.70;;;13.70;81.80;;;;;;5043227;28;20427;-53
2023/10/24 03:42:11;;;;;;;1.33;0.87;;;13.70;81.00;;;;;;5021926;28;20563;-52
2023/10/24 03:44:39;;;;;;;1.00;0.60;;;13.70;81.40;;;;;;5030904;28;20460;-51
2023/10/24 03:47:08;;;;;;;1.27;0.90;;;13.60;80.90;;;;;;5024846;28;20489;-52
2023/10/24 03:49:37;;;;;;;1.33;0.87;;;13.70;80.60;;;;;;5024216;28;20448;-51
2023/10/24 03:52:06;;;;;;;1.57;0.80;;;13.70;80.50;;;;;;5023538;28;20452;-52
2023/10/24 03:54:34;;;;;;;1.10;0.70;;;13.70;80.90;;;;;;5022954;28;20498;-53
2023/10/24 03:57:04;;;;;;;1.20;0.70;;;13.70;80.70;;;;;;5047802;28;20558;-52
2023/10/24 03:59:34;;;;;;;1.10;0.70;;;13.70;81.50;;;;;;5027703;28;20966;-53
2023/10/24 04:02:02;;;;;;;1.30;0.83;;;13.60;80.50;;;;;;5029854;28;20484;-51
2023/10/24 04:04:30;;;;;;;1.47;0.77;;;13.70;80.40;;;;;;5030060;28;20465;-53
2023/10/24 04:06:59;;;;;;;1.23;0.60;;;13.70;81.00;;;;;;5019923;28;20471;-51
2023/10/24 04:09:27;;;;;;;1.30;0.67;;;13.60;80.50;;;;;;5018417;28;20453;-50
2023/10/24 04:12:06;;;;;;;1.30;0.80;;;13.60;81.20;;;;;;5027374;28;20488;-52
2023/10/24 04:14:36;;;;;;;1.57;0.80;;;13.60;80.70;;;;;;5048275;28;21325;-53
2023/10/24 04:17:05;;;;;;;1.23;0.70;;;13.60;80.40;;;;;;5023081;28;20882;-53
2023/10/24 04:19:34;;;;;;;1.37;0.90;;;13.70;80.70;;;;;;5038038;28;21251;-50
2023/10/24 04:22:03;;;;;;;1.63;0.80;;;13.70;81.00;;;;;;5021457;28;20482;-53
2023/10/24 04:24:31;;;;;;;1.47;0.80;;;13.60;80.60;;;;;;5019699;28;21007;-52
2023/10/24 04:27:00;;;;;;;1.37;0.87;;;13.70;80.70;;;;;;5016519;28;20535;-50
2023/10/24 04:29:30;;;;;;;1.20;0.60;;;13.60;80.60;;;;;;5026129;28;20749;-52
2023/10/24 04:32:00;;;;;;;1.47;0.50;;;13.60;80.40;;;;;;5032364;28;20477;-53
2023/10/24 04:34:28;;;;;;;1.00;0.60;;;13.60;80.50;;;;;;5024286;28;20462;-51
2023/10/24 04:36:58;;;;;;;1.23;0.60;;;13.60;80.50;;;;;;5020480;28;20813;-53
2023/10/24 04:39:26;;;;;;;1.37;0.70;;;13.60;80.30;;;;;;5022639;28;20705;-53
2023/10/24 04:41:55;;;;;;;1.00;0.63;;;13.70;80.90;;;;;;5041722;28;20464;-53
2023/10/24 04:44:23;;;;;;;2.33;0.50;;;13.60;80.50;;;;;;5026709;28;20491;-53
2023/10/24 04:46:51;;;;;;;1.23;0.60;;;13.60;80.50;;;;;;5019264;28;20511;-52
2023/10/24 04:49:24;;;;;;;1.83;0.83;;;13.60;80.30;;;;;;5023211;28;20942;-51
2023/10/24 04:51:53;;;;;;;1.70;0.80;;;13.60;81.00;;;;;;5002073;28;20481;-53
2023/10/24 04:54:21;;;;;;;1.80;0.67;;;13.60;81.10;;;;;;5039391;28;20560;-53
2023/10/24 04:56:50;;;;;;;1.93;1.13;;;13.60;81.10;;;;;;5041942;28;20493;-52
2023/10/24 04:59:18;;;;;;;1.37;0.90;;;13.60;81.00;;;;;;5025260;28;20794;-52
2023/10/24 05:01:47;;;;;;;1.20;0.73;;;13.60;80.70;;;;;;5020476;28;20807;-53
2023/10/24 05:04:15;;;;;;;1.40;0.80;;;13.60;80.40;;;;;;5026150;28;20487;-51
2023/10/24 05:06:45;;;;;;;1.10;0.50;;;13.60;80.30;;;;;;5021511;28;20481;-53
2023/10/24 05:09:16;;;;;;;1.10;0.57;;;13.60;79.90;;;;;;5023461;28;20445;-53
2023/10/24 05:11:44;;;;;;;1.27;0.70;;;13.60;79.90;;;;;;5041174;28;20474;-51
2023/10/24 05:14:13;;;;;;;0.90;0.60;;;13.60;79.70;;;;;;5028352;28;20433;-53
2023/10/24 05:16:44;;;;;;;1.10;0.60;;;13.60;79.80;;;;;;5028224;28;20580;-53
2023/10/24 05:19:13;;;;;;;1.10;0.60;;;13.60;79.90;;;;;;5024829;28;20441;-53
2023/10/24 05:21:41;;;;;;;1.27;0.73;;;13.60;80.00;;;;;;5039459;28;20470;-53
2023/10/24 05:24:17;;;;;;;1.00;0.50;;;13.60;80.10;;;;;;5039175;28;20485;-50
2023/10/24 05:26:47;;;;;;;1.30;0.80;;;13.60;80.30;;;;;;5024263;28;20995;-50
2023/10/24 05:29:15;;;;;;;1.80;0.80;;;13.60;80.00;;;;;;5032228;28;20450;-51
2023/10/24 05:31:44;;;;;;;1.20;0.80;;;13.60;80.00;;;;;;5038242;28;21146;-51
2023/10/24 05:34:12;;;;;;;2.00;0.73;;;13.60;79.90;;;;;;5027562;28;20446;-54
2023/10/24 05:36:41;;;;;;;1.00;0.60;;;13.60;80.20;;;;;;5032179;28;20449;-52
2023/10/24 05:39:09;;;;;;;1.30;0.70;;;13.60;79.60;;;;;;5023817;28;20489;-51
2023/10/24 05:41:38;;;;;;;3.73;1.47;;;13.60;80.60;;;;;;5026587;28;20909;-51
2023/10/24 05:44:07;;;;;;;1.10;0.60;;;13.60;80.00;;;;;;5028943;28;20511;-50
2023/10/24 05:46:35;;;;;;;1.20;0.63;;;13.60;80.30;;;;;;5044882;28;20506;-52
2023/10/24 05:49:03;;;;;;;1.13;0.50;;;13.60;80.50;;;;;;5040746;28;20435;-52
2023/10/24 05:51:32;;;;;;;1.57;0.87;;;13.60;80.20;;;;;;5027450;28;21052;-51
2023/10/24 05:54:00;;;;;;;1.00;0.60;;;13.60;80.00;;;;;;5026818;28;20441;-51
2023/10/24 05:56:32;;;;;;;1.50;0.80;;;13.60;80.00;;;;;;5019003;28;20475;-52
2023/10/24 05:59:02;;;;;;;1.40;0.60;;;13.60;79.90;;;;;;5036734;28;20523;-52
2023/10/24 06:01:31;;;;;;;1.00;0.60;;;13.60;79.90;;;;;;5025121;28;21028;-53
2023/10/24 06:03:59;;;;;;;1.10;0.60;;;13.60;79.60;;;;;;5026007;28;20433;-53
2023/10/24 06:06:27;;;;;;;1.10;0.50;;;13.60;79.60;;;;;;5029215;28;20484;-53
2023/10/24 06:08:56;;;;;;;1.13;0.60;;;13.60;79.50;;;;;;5021685;28;20476;-52
2023/10/24 06:11:24;;;;;;;1.20;0.70;;;13.60;79.50;;;;;;5026373;28;20550;-51
2023/10/24 06:13:53;;;;;;;1.10;0.70;;;13.60;79.30;;;;;;5015246;28;20930;-53
2023/10/24 06:16:22;;;;;;;1.63;1.10;;;13.60;79.20;;;;;;5021582;28;20479;-50
2023/10/24 06:18:51;;;;;;;1.00;0.57;;;13.60;79.10;;;;;;5024065;28;20446;-53
2023/10/24 06:21:19;;;;;;;1.10;0.50;;;13.60;79.00;;;;;;5024871;28;20975;-50
2023/10/24 06:23:47;;;;;;;1.30;0.80;;;13.60;79.20;;;;;;5013772;28;20436;-52
2023/10/24 06:26:19;;;;;;;1.10;0.60;;;13.60;79.30;;;;;;5045444;28;20603;-53
2023/10/24 06:28:47;;;;;;;1.27;0.70;;;13.60;79.20;;;;;;5026821;28;20436;-50
2023/10/24 06:31:16;;;;;;;1.00;0.70;;;13.60;79.10;;;;;;5025942;28;20472;-52
2023/10/24 06:33:45;;;;;;;1.40;0.60;;;13.60;79.30;;;;;;5027423;28;20942;-52
2023/10/24 06:36:14;;;;;;;1.33;0.53;;;13.60;79.40;;;;;;5027281;28;20466;-53
2023/10/24 06:38:42;;;;;;;1.20;0.60;;;13.60;79.40;;;;;;5043201;28;20449;-53
2023/10/24 06:41:11;;;;;;;1.20;0.80;;;13.60;79.50;;;;;;5022068;28;20923;-50
2023/10/24 06:43:39;;;;;;;1.50;0.60;;;13.60;79.70;;;;;;5018693;28;20417;-53
2023/10/24 06:46:08;;;;;;;1.50;0.80;;;13.60;79.40;;;;;;5023801;28;20517;-53
2023/10/24 06:48:36;;;;;;;1.33;0.90;;;13.60;79.40;;;;;;5022799;28;20792;-53
2023/10/24 06:51:06;;;;;;;2.13;0.70;;;13.60;79.00;;;;;;5028337;28;20473;-54
2023/10/24 06:53:34;;;;;;;1.10;0.70;;;13.60;79.20;;;;;;5018151;28;20752;-53
2023/10/24 06:56:03;;;;;;;3.00;0.60;;;13.60;79.20;;;;;;5024905;28;20578;-51
2023/10/24 06:58:31;;;;;;;1.30;0.60;;;13.60;78.90;;;;;;5028027;28;20431;-53
2023/10/24 07:00:59;;;;;;;1.20;0.70;;;13.60;79.20;;;;;;5027634;28;20474;-51
2023/10/24 07:03:28;;;;;;;1.60;0.73;;;13.60;79.40;;;;;;5026767;28;20498;-52
2023/10/24 07:05:56;;;;;;;1.00;0.60;;;13.60;78.90;;;;;;5027612;28;20474;-51
2023/10/24 07:08:26;;;;;;;1.20;0.70;;;13.60;79.20;;;;;;5025307;28;20447;-50
2023/10/24 07:10:54;;;;;;;1.50;0.60;;;13.60;79.00;;;;;;5028467;28;20496;-53
2023/10/24 07:13:23;;;;;;;1.10;0.60;;;13.60;79.10;;;;;;5032853;28;20447;-53
2023/10/24 07:15:51;;;;;;;2.23;1.00;;;13.60;78.90;;;;;;5019075;28;20607;-54
2023/10/24 07:18:19;;;;;;;1.10;0.77;;;13.60;79.20;;;;;;5026438;28;20438;-51
2023/10/24 07:20:48;;;;;;;1.33;0.80;;;13.60;79.30;;;;;;5044980;28;20471;-52
2023/10/24 07:23:16;;;;;;;1.20;0.60;;;13.60;79.20;;;;;;5044498;28;20553;-50
2023/10/24 07:25:46;;;;;;;1.50;0.83;;;13.60;79.50;;;;;;5027003;28;20523;-50
2023/10/24 07:28:14;;;;;;;1.20;0.60;;;13.60;79.30;;;;;;5027650;28;20464;-51
2023/10/24 07:30:42;;;;;;;2.80;0.90;;;13.60;79.30;;;;;;5044946;28;20439;-52
2023/10/24 07:33:11;;;;;;;1.30;0.83;;;13.60;79.20;;;;;;5008577;28;20473;-51
2023/10/24 07:35:40;;;;;;;1.27;0.73;;;13.60;79.00;;;;;;5024201;28;20487;-51
2023/10/24 07:38:09;;;;;;;1.73;0.80;;;13.60;78.90;;;;;;5017261;28;20436;-52
2023/10/24 07:40:37;;;;;;;1.10;0.70;;;13.60;79.10;;;;;;5022986;28;20441;-51
2023/10/24 07:43:08;;;;;;;1.67;1.00;;;13.60;78.90;;;;;;5050733;28;20457;-53
2023/10/24 07:45:36;;;;;;;1.03;0.70;;;13.60;79.10;;;;;;5023531;28;20468;-53
2023/10/24 07:48:05;;;;;;;1.30;0.73;;;13.60;79.80;;;;;;5018684;28;20469;-53
2023/10/24 07:50:34;;;;;;;2.13;1.03;;;13.60;79.50;;;;;;5029433;28;20811;-50
2023/10/24 07:53:03;;;;;;;1.60;0.90;;;13.60;80.00;;;;;;5039292;28;20452;-51
2023/10/24 07:55:32;;;;;;;1.40;0.97;;;13.60;80.00;;;;;;5031277;28;20583;-53
2023/10/24 07:58:00;;;;;;;2.10;1.20;;;13.60;80.30;;;;;;5018415;28;20436;-51
2023/10/24 08:00:29;;;;;;;1.60;1.00;;;13.60;80.30;;;;;;5023003;28;20551;-52
2023/10/24 08:02:58;;;;;;;2.50;1.33;;;13.60;80.50;;;;;;5017522;28;20448;-52
2023/10/24 08:05:26;;;;;;;1.83;1.00;;;13.60;80.20;;;;;;5019279;28;20558;-53
2023/10/24 08:07:55;;;;;;;1.20;0.70;;;13.50;80.10;;;;;;5005490;28;20463;-52
2023/10/24 08:10:23;;;;;;;1.43;0.80;;;13.50;80.30;;;;;;5024807;28;20469;-51
2023/10/24 08:12:52;;;;;;;1.87;0.97;;;13.50;80.00;;;;;;5013724;28;20427;-52
2023/10/24 08:15:20;;;;;;;1.47;0.83;;;13.50;80.40;;;;;;5024699;28;20452;-54
2023/10/24 08:17:51;;;;;;;1.43;0.60;;;13.50;81.50;;;;;;5027752;28;20470;-51
2023/10/24 08:20:20;;;;;;;1.20;0.80;;;13.50;80.60;;;;;;5025185;28;21024;-51
2023/10/24 08:22:49;;;;;;;1.73;1.20;;;13.50;80.50;;;;;;5031786;28;20478;-51
2023/10/24 08:25:18;;;;;;;1.20;0.60;;;13.50;80.70;;;;;;5021534;28;20479;-51
2023/10/24 08:27:46;;;;;;;1.40;0.60;;;13.50;80.60;;;;;;5029153;28;20467;-52
2023/10/24 08:30:15;;;;;;;1.43;0.90;;;13.50;80.30;;;;;;5024097;28;20561;-52
2023/10/24 08:32:43;;;;;;;1.20;0.70;;;13.50;80.60;;;;;;5024795;28;20447;-52
2023/10/24 08:35:13;;;;;;;1.30;0.70;;;13.60;79.90;;;;;;5034035;28;20456;-53
2023/10/24 08:37:41;;;;;;;1.20;0.70;;;13.60;79.90;;;;;;5021379;28;20440;-53
2023/10/24 08:40:10;;;;;;;1.10;0.60;;;13.60;80.10;;;;;;5031190;28;20518;-54
2023/10/24 08:42:38;;;;;;;1.47;0.73;;;13.60;80.00;;;;;;5028347;28;20538;-52
2023/10/24 08:45:09;;;;;;;1.40;0.87;;;13.60;79.70;;;;;;5025120;28;20526;-53
2023/10/24 08:47:37;;;;;;;1.20;0.70;;;13.60;80.30;;;;;;5019734;28;20524;-53
2023/10/24 08:50:07;;;;;;;1.10;0.60;;;13.60;80.50;;;;;;5020820;28;20441;-53
2023/10/24 08:52:37;;;;;;;1.00;0.63;;;13.60;80.20;;;;;;5021373;28;20983;-52
2023/10/24 08:55:06;;;;;;;2.20;1.10;;;13.60;80.00;;;;;;5009011;28;20458;-52
2023/10/24 08:57:40;;;;;;;1.10;0.60;;;13.60;80.50;;;;;;5022838;28;20472;-52
2023/10/24 09:00:11;;;;;;;1.40;0.70;;;13.60;79.90;;;;;;5041791;28;20444;-53
2023/10/24 09:02:41;;;;;;;1.10;0.60;;;13.60;80.00;;;;;;5037200;28;20450;-53
2023/10/24 09:05:10;;;;;;;1.00;0.60;;;13.60;80.00;;;;;;5023162;28;20837;-52
2023/10/24 09:07:39;;;;;;;2.27;0.97;;;13.60;80.00;;;;;;5018235;28;21020;-53
2023/10/24 09:10:09;;;;;;;1.00;0.60;;;13.60;80.50;;;;;;5023760;28;20515;-51
2023/10/24 09:12:38;;;;;;;1.00;0.60;;;13.60;79.90;;;;;;5019186;28;20480;-53
2023/10/24 09:15:10;;;;;;;1.80;0.80;;;13.60;80.00;;;;;;5026801;28;20498;-52
2023/10/24 09:17:38;;;;;;;1.20;0.70;;;13.60;79.80;;;;;;5021161;28;20475;-53
2023/10/24 09:20:08;;;;;;;1.30;0.73;;;13.60;80.10;;;;;;5026555;28;20445;-52
2023/10/24 09:22:36;;;;;;;1.33;0.70;;;13.60;80.00;;;;;;5020169;28;20460;-52
2023/10/24 09:25:08;;;;;;;1.10;0.60;;;13.60;80.00;;;;;;5029216;28;20466;-50
2023/10/24 09:27:37;;;;;;;1.10;0.60;;;13.60;79.80;;;;;;5023092;28;20497;-52
2023/10/24 09:30:11;;;;;;;1.00;0.60;;;13.60;80.00;;;;;;5018534;28;20697;-52
2023/10/24 09:32:41;;;;;;;1.30;0.73;;;13.60;79.80;;;;;;5016372;28;20974;-52
2023/10/24 09:35:10;;;;;;;1.00;0.60;;;13.60;79.70;;;;;;5032780;28;20513;-53
2023/10/24 09:37:39;;;;;;;1.63;0.60;;;13.60;79.50;;;;;;5022873;28;20436;-53
2023/10/24 09:40:13;;;;;;;1.40;0.60;;;13.60;80.00;;;;;;5036342;28;20464;-52
2023/10/24 09:42:44;;;;;;;1.37;0.90;;;13.60;79.70;;;;;;5023055;28;20444;-52
2023/10/24 09:45:13;;;;;;;1.40;0.73;;;13.60;79.60;;;;;;5025409;28;20553;-53
2023/10/24 09:47:42;;;;;;;1.30;0.70;;;13.60;79.20;;;;;;5021924;28;20502;-53
2023/10/24 09:50:13;;;;;;;1.27;0.60;;;13.60;79.80;;;;;;5023052;28;20439;-53
2023/10/24 09:52:42;;;;;;;1.10;0.60;;;13.60;79.30;;;;;;5017269;28;20955;-52
2023/10/24 09:55:15;;;;;;;1.90;1.07;;;13.60;79.00;;;;;;5004875;28;20553;-53
2023/10/24 09:57:45;;;;;;;3.47;0.70;;;13.60;79.50;;;;;;5037589;28;20477;-52
2023/10/24 10:00:14;;;;;;;1.60;0.70;;;13.60;79.70;;;;;;5031040;28;20885;-53
2023/10/24 10:02:44;;;;;;;1.27;0.87;;;13.60;79.10;;;;;;5040438;28;20451;-53
2023/10/24 10:05:15;;;;;;;0.90;0.47;;;13.60;79.30;;;;;;5020036;28;20475;-52
2023/10/24 10:07:48;;;;;;;1.10;0.70;;;13.60;79.10;;;;;;5022778;28;20439;-52
2023/10/24 10:10:20;;;;;;;1.30;1.00;;;13.60;79.90;;;;;;5024498;28;20842;-51
2023/10/24 10:12:51;;;;;;;0.90;0.60;;;13.60;80.10;;;;;;5027595;28;20481;-51
2023/10/24 10:15:48;;;;;;;2.53;0.83;;;13.60;79.90;;;;;;5046508;28;20557;-53
2023/10/24 10:18:36;;;;;;;1.30;0.77;;;13.60;80.30;;;;;;5020839;28;20456;-53
2023/10/24 10:21:18;;;;;;;1.30;0.70;;;13.60;79.90;;;;;;5043817;28;20558;-53
2023/10/24 10:24:06;;;;;;;1.83;0.60;;;13.60;79.40;;;;;;5026670;28;20536;-52
2023/10/24 10:26:53;;;;;;;1.93;0.90;;;13.60;79.50;;;;;;5024905;28;20465;-53
2023/10/24 10:29:29;;;;;;;1.20;0.70;;;13.60;79.90;;;;;;5026776;28;20475;-53
2023/10/24 10:32:11;;;;;;;1.53;0.90;;;13.60;79.50;;;;;;5025769;28;20996;-50
2023/10/24 10:35:00;;;;;;;1.80;1.00;;;13.60;79.50;;;;;;5024752;28;20550;-51
2023/10/24 10:37:34;;;;;;;1.10;0.63;;;13.60;79.60;;;;;;5037552;28;20816;-53
2023/10/24 10:40:24;;;;;;;1.20;0.87;;;13.60;79.50;;;;;;5026759;28;20932;-53
2023/10/24 10:42:54;;;;;;;1.40;0.70;;;13.60;79.00;;;;;;5049821;28;20431;-52
2023/10/24 10:45:27;;;;;;;1.10;0.63;;;13.60;79.70;;;;;;5026483;28;20458;-51
2023/10/24 10:48:00;;;;;;;3.40;1.00;;;13.60;79.30;;;;;;5027022;28;20527;-51
2023/10/24 10:50:29;;;;;;;1.20;0.57;;;13.70;80.50;;;;;;5043891;28;20546;-53
2023/10/24 10:53:13;;;;;;;1.70;0.90;;;13.70;80.70;;;;;;5028637;28;20466;-53
2023/10/24 10:56:00;;;;;;;1.50;1.00;;;13.70;79.80;;;;;;5025779;28;20487;-52
2023/10/24 10:58:39;;;;;;;1.33;0.97;;;13.60;79.60;;;;;;5044009;28;20447;-53
2023/10/24 11:01:17;;;;;;;1.50;0.73;;;13.60;78.90;;;;;;5019010;28;20478;-53
2023/10/24 11:03:47;;;;;;;2.60;0.83;;;13.70;79.30;;;;;;5018548;28;20445;-52
2023/10/24 11:06:16;;;;;;;2.20;1.20;;;13.60;80.90;;;;;;5021377;28;20481;-51
2023/10/24 11:08:49;;;;;;;1.80;1.00;;;13.70;88.50;;;;;;5019399;28;20470;-51
2023/10/24 11:11:20;;;;;;;1.77;1.13;;;13.70;87.70;;;;;;5028444;28;20481;-52
2023/10/24 11:13:53;;;;;;;1.90;1.40;;;13.70;86.40;;;;;;5017492;28;20626;-52
2023/10/24 11:16:22;;;;;;;1.83;1.27;;;13.70;87.00;;;;;;5021026;28;20484;-52
2023/10/24 11:19:05;;;;;;;4.33;1.23;;;13.70;86.90;;;;;;5024288;28;20829;-52
2023/10/24 11:21:34;;;;;;;2.00;1.13;;;13.70;87.00;;;;;;5044383;28;20529;-52
2023/10/24 11:24:02;;;;;;;2.03;0.90;;;13.70;84.80;;;;;;5040715;28;20448;-52
2023/10/24 11:26:30;;;;;;;2.50;1.23;;;13.70;86.30;;;;;;5018478;28;21195;-53
2023/10/24 11:29:01;;;;;;;1.73;1.00;;;13.70;85.90;;;;;;5043519;28;20479;-53
2023/10/24 11:31:29;;;;;;;1.73;1.17;;;13.70;85.80;;;;;;5018436;28;20475;-53
2023/10/24 11:33:58;;;;;;;1.60;0.87;;;13.70;86.40;;;;;;5024384;28;20953;-53
2023/10/24 11:36:27;;;;;;;2.37;1.10;;;13.70;84.70;;;;;;5005233;28;20650;-53
2023/10/24 11:38:58;;;;;;;2.07;1.00;;;13.70;85.80;;;;;;5008299;28;21056;-53
2023/10/24 11:41:27;;;;;;;2.77;1.57;;;13.70;84.70;;;;;;5020365;28;21010;-53
2023/10/24 11:43:56;;;;;;;1.90;1.20;;;13.70;83.30;;;;;;5030592;28;20510;-53
2023/10/24 11:46:25;;;;;;;2.70;1.17;;;13.70;83.10;;;;;;5018833;28;20475;-53
2023/10/24 11:48:54;;;;;;;1.30;0.87;;;13.70;83.50;;;;;;5027142;28;20473;-52
2023/10/24 11:51:23;;;;;;;1.77;1.00;;;13.70;83.20;;;;;;5022288;28;20466;-51
2023/10/24 11:54:01;;;;;;;1.80;0.80;;;13.70;83.80;;;;;;5038553;28;20956;-53
2023/10/24 11:56:29;;;;;;;2.53;0.70;;;13.70;84.20;;;;;;5030393;28;21867;-54
2023/10/24 11:58:57;;;;;;;3.07;1.33;;;13.70;83.80;;;;;;5040748;28;20867;-52
2023/10/24 12:01:30;;;;;;;1.80;1.07;;;13.70;84.00;;;;;;5039851;28;20498;-51
2023/10/24 12:04:00;;;;;;;2.90;1.00;;;13.70;83.10;;;;;;5007382;28;20914;-53
2023/10/24 12:06:30;;;;;;;1.30;0.80;;;13.70;83.30;;;;;;5009418;28;20991;-51
2023/10/24 12:09:00;;;;;;;1.83;0.90;;;13.70;83.70;;;;;;5036875;28;20591;-52
2023/10/24 12:11:28;;;;;;;1.50;0.80;;;13.70;83.30;;;;;;5033601;28;20544;-52
2023/10/24 12:13:57;;;;;;;1.50;0.80;;;13.70;83.30;;;;;;5038723;28;20575;-51
2023/10/24 12:16:30;;;;;;;1.70;0.80;;;13.70;83.00;;;;;;5019474;28;20472;-51
2023/10/24 12:19:18;;;;;;;1.10;0.80;;;13.70;84.50;;;;;;5021524;28;20818;-53
2023/10/24 12:21:46;;;;;;;1.23;0.77;;;13.70;82.30;;;;;;5021069;28;20557;-53
2023/10/24 12:24:15;;;;;;;1.53;0.80;;;13.70;82.60;;;;;;5033491;28;20519;-53
2023/10/24 12:26:44;;;;;;;1.40;0.90;;;13.70;82.10;;;;;;5022634;28;20856;-53
2023/10/24 12:29:12;;;;;;;1.07;0.60;;;13.70;82.50;;;;;;5021665;28;20461;-50
2023/10/24 12:31:42;;;;;;;1.30;0.70;;;13.70;82.10;;;;;;4996097;28;20995;-52
2023/10/24 12:34:12;;;;;;;2.70;1.27;;;13.70;82.10;;;;;;5001561;28;20900;-51
2023/10/24 12:36:41;;;;;;;1.97;0.70;;;13.70;81.60;;;;;;5003864;28;20575;-53
2023/10/24 12:39:09;;;;;;;1.30;0.67;;;13.80;81.90;;;;;;5007549;28;20462;-53
2023/10/24 12:41:37;;;;;;;1.47;1.10;;;13.80;81.60;;;;;;5010824;28;20876;-53
2023/10/24 12:44:06;;;;;;;1.50;0.80;;;13.80;81.80;;;;;;5027092;28;20457;-54
2023/10/24 12:46:34;;;;;;;1.30;0.80;;;13.80;82.10;;;;;;5010706;28;20472;-52
2023/10/24 12:49:04;;;;;;;2.70;1.00;;;13.80;81.80;;;;;;5024022;28;20449;-53
2023/10/24 12:51:33;;;;;;;1.70;0.67;;;13.80;81.60;;;;;;5040806;28;21229;-53
2023/10/24 12:54:01;;;;;;;1.50;0.80;;;13.80;82.10;;;;;;5020843;28;21005;-52
2023/10/24 12:56:29;;;;;;;1.00;0.60;;;13.80;82.00;;;;;;5019292;28;20913;-53
2023/10/24 12:58:57;;;;;;;2.40;1.00;;;13.80;81.60;;;;;;5042024;28;20485;-51